Pagina principale
METAR-TAF:

METAR-TAF

Aeroporti :

Foz do Iguaçu, Paraná, Brasile

latitudine: 25-31S, longitudine: 054-35W, altezza: 180 m

Osservazione

Il bollettino è stato emesso 55 minuti fa, alle 23:00 UTC
Vento 2 kt da sud
Temperature 12°C
Umidità 100%
Pressione 1022 hPa
Visibilità 10 km o più
nessuna nube inferiore a 1500 m e nessun cumulonembo

METAR: SBFI 232300Z 18002KT CAVOK 12/12 Q1022

Ora: 20:55 (23:55 UTC)

Previsione

Il bollettino è stato emesso 2 ore e 25 minuti fa, alle 21:30 UTC
Previsione valida dal 24 alle 00 UTC al 24 alle 24 UTC
Vento 4 kt da sud/sud-est
Visibilità 10 km o più
nessuna nube inferiore a 1500 m e nessun cumulonembo
Probabilità 30% :
Temporaneamente
dal 24 alle 08 UTC al 24 alle 11 UTC
Visibilità: 7000 m

TAF: SBFI 232130Z 2400/2424 16004KT CAVOK TN08/2409Z TX18/2418Z PROB30 TEMPO 2408/2411 7000 NSC RMK PDW

Osservazioni e previsioni meteorologiche di più di 4000 aeroporti (messaggi METAR e TAF).

Le stazioni disponibili sono rappresentate dai dischi gialli e rossi sulla carta.

Puntare il mouse per vedere il nome della stazione.

Clicca sopra per visualizzare le osservazioni e previsioni meteorologiche.

Per cambiare la mappa : fare clic sui pulsanti verdi con una croce nera per ingrandire, il pulsante verde con un trattino per diminuire, o sulla freccia verde per le mappe adiacenti.


METAR-TAF: